Lakeview, Arkansas
Current Conditions -  °F | °C
As of 12:53 PM on Thursday 18 Dec 2014 (Local Time) from KBPK Reporting Station
Overcast Overcast  
Wind Chill: 33°   Ceiling: 600
Heat Index: 37°   Visibility: 7mi
Dew Point: 34°   Wind: 5mph
Humidity: 89%   Direction: 140°SE
Pressure: 30.17"   Gusts: NA
Location:  36.37°N, 92.55°W
Report Text: KBPK 181853Z AUTO 14004KT 7SM OVC006 03/01 A3017 RMK AO2 SLP223 T00280011
Loading
Personal Weather Stations






























Interactive Weather Map New forecast layout! Learn more

10-Day Weather Forecast

Advertisements
Track Severe Weather on mobile